Time;durP1;ratioP1;P1;durP2;ratioP2;P2;SDS_P1;SDS_P2;PMS_P1;PMS_P2;Temp;Humidity;BMP_temperature;BMP_pressure;BME280_temperature;BME280_humidity;BME280_pressure;Samples;Min_cycle;Max_cycle;Signal;HPM_P1;HPM_P2
2024/04/24 00:01:35;;;;;;;11.45;8.57;;;;;;;4.25;63.33;96194.56;5211573;27;20000;-73
2024/04/24 00:04:04;;;;;;;8.65;7.15;;;;;;;4.19;62.94;96190.81;5211590;27;20015;-73
2024/04/24 00:06:34;;;;;;;12.23;8.75;;;;;;;4.15;63.08;96186.91;5210728;27;20356;-73
2024/04/24 00:09:03;;;;;;;11.48;8.95;;;;;;;4.12;63.26;96185.44;5211210;27;20004;-73
2024/04/24 00:11:32;;;;;;;10.45;8.00;;;;;;;4.07;63.23;96177.34;5210907;27;20019;-73
2024/04/24 00:14:02;;;;;;;11.70;8.98;;;;;;;4.03;63.20;96181.19;5227750;27;19992;-72
2024/04/24 00:16:32;;;;;;;10.18;7.57;;;;;;;4.00;63.52;96173.78;5232674;27;20008;-72
2024/04/24 00:19:04;;;;;;;11.50;7.55;;;;;;;3.94;63.52;96173.56;5232957;27;20000;-73
2024/04/24 00:21:33;;;;;;;11.93;7.68;;;;;;;3.85;63.30;96177.84;5232951;27;20058;-73
2024/04/24 00:24:02;;;;;;;13.57;7.50;;;;;;;3.79;63.47;96171.50;5233229;27;19992;-73
2024/04/24 00:26:33;;;;;;;11.27;7.40;;;;;;;3.79;63.60;96178.44;5232239;27;20024;-73
2024/04/24 00:29:03;;;;;;;10.77;7.30;;;;;;;3.78;63.68;96174.22;5232962;27;20015;-73
2024/04/24 00:31:32;;;;;;;10.88;7.95;;;;;;;3.77;63.65;96183.75;5217564;27;20008;-73
2024/04/24 00:34:04;;;;;;;10.77;8.10;;;;;;;3.81;65.74;96179.09;5211059;27;20014;-73
2024/04/24 00:36:33;;;;;;;9.33;7.17;;;;;;;3.85;64.97;96175.28;5210862;27;20008;-73
2024/04/24 00:39:03;;;;;;;9.95;7.95;;;;;;;3.85;64.44;96175.28;5211300;27;20990;-73
2024/04/24 00:41:32;;;;;;;9.00;7.03;;;;;;;3.84;64.42;96174.44;5211102;27;20468;-73
2024/04/24 00:44:01;;;;;;;9.82;6.60;;;;;;;3.84;64.71;96171.84;5211271;27;20003;-73
2024/04/24 00:46:34;;;;;;;10.30;6.88;;;;;;;3.81;64.04;96177.34;5210838;27;20000;-73
2024/04/24 00:49:06;;;;;;;10.18;7.70;;;;;;;3.76;64.17;96174.41;5210814;27;20019;-73
2024/04/24 00:51:37;;;;;;;10.38;7.47;;;;;;;3.65;63.71;96175.44;5211307;27;20014;-73
2024/04/24 00:54:07;;;;;;;10.52;7.50;;;;;;;3.54;64.03;96173.06;5211039;27;20087;-73
2024/04/24 00:56:37;;;;;;;8.90;7.68;;;;;;;3.46;64.17;96170.44;5210948;27;20004;-73
2024/04/24 00:59:06;;;;;;;9.23;6.72;;;;;;;3.42;64.25;96171.69;5211128;27;20014;-74
2024/04/24 01:01:36;;;;;;;9.73;6.72;;;;;;;3.39;64.26;96171.97;5210910;27;20008;-73
2024/04/24 01:04:08;;;;;;;10.15;7.40;;;;;;;3.35;64.71;96163.72;5210596;27;20015;-73
2024/04/24 01:06:37;;;;;;;10.95;7.53;;;;;;;3.32;64.68;96168.38;5208770;27;20004;-73
2024/04/24 01:09:06;;;;;;;9.65;7.57;;;;;;;3.33;64.83;96162.25;5210886;27;20014;-73
2024/04/24 01:11:36;;;;;;;9.93;7.57;;;;;;;3.32;65.03;96163.22;5210537;27;20004;-73
2024/04/24 01:14:05;;;;;;;11.55;8.15;;;;;;;3.32;64.91;96161.44;5212901;27;20019;-73
2024/04/24 01:16:39;;;;;;;9.43;7.18;;;;;;;3.32;65.48;96165.78;5215111;27;20007;-73
2024/04/24 01:19:38;;;;;;;8.35;7.15;;;;;;;3.34;65.52;96164.69;5215066;27;20008;-73
2024/04/24 01:22:17;;;;;;;8.98;6.78;;;;;;;3.34;65.13;96161.28;5215907;27;20395;-73
2024/04/24 01:24:53;;;;;;;8.70;6.97;;;;;;;3.31;65.31;96152.09;5213054;27;20342;-73
2024/04/24 01:27:25;;;;;;;8.95;7.63;;;;;;;3.30;65.55;96151.28;5210705;27;20003;-73
2024/04/24 01:29:54;;;;;;;9.25;7.00;;;;;;;3.33;65.88;96149.38;5211043;27;20475;-73
2024/04/24 01:32:23;;;;;;;12.02;8.23;;;;;;;3.32;65.46;96158.84;5210638;27;20337;-73
2024/04/24 01:34:53;;;;;;;10.80;8.00;;;;;;;3.26;65.50;96149.16;5210858;27;20008;-73
2024/04/24 01:37:22;;;;;;;8.93;7.13;;;;;;;3.22;65.11;96150.41;5209748;27;20078;-73
2024/04/24 01:39:51;;;;;;;9.05;7.43;;;;;;;3.15;65.15;96146.78;5210576;27;20340;-73
2024/04/24 01:42:21;;;;;;;9.90;6.85;;;;;;;3.07;65.40;96139.78;5210115;27;20007;-73
2024/04/24 01:44:53;;;;;;;9.82;7.28;;;;;;;2.97;66.10;96144.19;5210044;27;20487;-73
2024/04/24 01:47:22;;;;;;;8.00;6.43;;;;;;;2.89;65.63;96143.16;5209976;27;20352;-73
2024/04/24 01:49:51;;;;;;;9.98;7.15;;;;;;;2.85;65.87;96136.66;5209994;27;20239;-73
2024/04/24 01:52:21;;;;;;;9.88;6.93;;;;;;;2.81;65.97;96145.63;5210164;27;20015;-73
2024/04/24 01:54:50;;;;;;;8.57;7.18;;;;;;;2.78;66.10;96140.78;5209884;27;20015;-73
2024/04/24 01:57:19;;;;;;;7.95;6.38;;;;;;;2.75;65.69;96135.91;5209673;27;20015;-73
2024/04/24 01:59:46;;;;;;;8.50;6.50;;;;;;;2.73;65.77;96135.22;5209797;27;20008;-73
2024/04/24 02:02:18;;;;;;;9.23;6.93;;;;;;;2.71;66.22;96138.91;5209994;27;20004;-73
2024/04/24 02:04:48;;;;;;;10.23;7.32;;;;;;;2.71;65.99;96142.28;5210222;27;20495;-73
2024/04/24 02:07:17;;;;;;;9.07;7.22;;;;;;;2.71;65.97;96137.13;5209321;27;20016;-73
2024/04/24 02:09:46;;;;;;;13.73;6.72;;;;;;;2.70;65.65;96132.16;5209612;27;20027;-73
2024/04/24 02:12:15;;;;;;;10.63;6.75;;;;;;;2.67;65.73;96125.53;5209780;27;20013;-73
2024/04/24 02:14:46;;;;;;;12.98;7.00;;;;;;;2.65;66.12;96135.16;5209796;27;20004;-73
2024/04/24 02:17:17;;;;;;;10.60;6.65;;;;;;;2.63;66.01;96134.50;5209340;27;20011;-73
2024/04/24 02:19:47;;;;;;;7.55;6.60;;;;;;;2.63;67.00;96134.50;5213101;27;20078;-73
2024/04/24 02:22:16;;;;;;;8.40;5.85;;;;;;;2.64;66.44;96130.94;5213042;27;20043;-73
2024/04/24 02:27:31;;;;;;;8.07;5.80;;;;;;;2.53;65.65;96123.44;5213869;27;20000;-73
2024/04/24 02:30:00;;;;;;;8.93;6.07;;;;;;;2.46;65.65;96120.63;5233238;27;19999;-72
2024/04/24 02:32:32;;;;;;;8.70;6.88;;;;;;;2.42;66.21;96127.00;5233800;27;20014;-72
2024/04/24 02:35:02;;;;;;;8.45;6.70;;;;;;;2.37;65.70;96117.13;5215812;27;20471;-73
2024/04/24 02:37:31;;;;;;;10.07;6.40;;;;;;;2.34;65.91;96114.84;5214316;27;20142;-73
2024/04/24 02:40:01;;;;;;;10.57;6.28;;;;;;;2.32;66.11;96124.47;5213580;27;20035;-73
2024/04/24 02:42:30;;;;;;;8.50;5.97;;;;;;;2.29;65.83;96119.59;5213555;27;20105;-73
2024/04/24 02:44:57;;;;;;;8.07;5.70;;;;;;;2.27;65.63;96129.22;5218646;27;20031;-73
2024/04/24 02:47:26;;;;;;;8.45;5.57;;;;;;;2.25;65.92;96128.53;5221381;27;20000;-73
2024/04/24 02:49:58;;;;;;;7.32;5.97;;;;;;;2.26;66.97;96125.03;5215581;27;20481;-73
2024/04/24 02:52:27;;;;;;;7.22;5.57;;;;;;;2.26;66.21;96122.47;5214958;27;20122;-73
2024/04/24 02:54:57;;;;;;;13.43;6.07;;;;;;;2.24;66.20;96111.50;5212905;27;20003;-73
2024/04/24 02:57:28;;;;;;;8.73;6.03;;;;;;;2.17;65.53;96115.59;5212704;27;20015;-73
2024/04/24 02:59:57;;;;;;;9.93;5.90;;;;;;;2.12;65.68;96117.78;5212966;27;20008;-73
2024/04/24 03:02:24;;;;;;;6.07;5.00;;;;;;;2.09;65.49;96116.28;5213014;27;20003;-73
2024/04/24 03:04:53;;;;;;;7.28;5.45;;;;;;;2.06;65.72;96108.88;5213048;27;20015;-73
2024/04/24 03:07:25;;;;;;;7.40;5.00;;;;;;;2.01;65.66;96114.44;5212307;27;20083;-73
2024/04/24 03:09:54;;;;;;;6.07;4.95;;;;;;;2.01;65.84;96111.88;5212290;27;20476;-73
2024/04/24 03:12:25;;;;;;;7.20;4.88;;;;;;;2.03;65.67;96107.38;5212704;27;20004;-73
2024/04/24 03:14:54;;;;;;;10.57;5.25;;;;;;;2.05;65.78;96104.66;5212315;27;20055;-73
2024/04/24 03:17:24;;;;;;;6.75;5.18;;;;;;;1.98;65.35;96106.19;5212029;27;19999;-72
2024/04/24 03:19:53;;;;;;;8.23;5.28;;;;;;;1.91;65.73;96094.84;5212731;27;20344;-72
2024/04/24 03:22:25;;;;;;;8.20;5.20;;;;;;;1.89;65.78;96097.53;5212194;27;20527;-72
2024/04/24 03:24:54;;;;;;;6.60;5.03;;;;;;;1.88;65.25;96089.94;5212736;27;20518;-72
2024/04/24 03:27:24;;;;;;;8.50;5.38;;;;;;;1.85;65.76;96091.06;5212213;27;20288;-72
2024/04/24 03:29:53;;;;;;;7.28;4.90;;;;;;;1.85;65.77;96085.91;5211102;27;20008;-72
2024/04/24 03:32:22;;;;;;;6.97;5.00;;;;;;;1.80;65.48;96088.09;5212265;27;20011;-72
2024/04/24 03:34:52;;;;;;;7.07;4.63;;;;;;;1.75;65.19;96069.69;5212231;27;20344;-72
2024/04/24 03:37:21;;;;;;;8.45;5.18;;;;;;;1.67;65.18;96070.41;5211703;27;20008;-72
2024/04/24 03:39:53;;;;;;;9.35;5.43;;;;;;;1.58;65.38;96068.66;5211839;27;20352;-72
2024/04/24 03:42:22;;;;;;;7.60;4.90;;;;;;;1.53;65.66;96065.69;5212596;27;20471;-73
2024/04/24 03:44:51;;;;;;;5.97;4.82;;;;;;;1.52;65.73;96059.75;5211913;27;20276;-73
2024/04/24 03:47:21;;;;;;;9.02;5.00;;;;;;;1.49;65.77;96064.34;5211658;27;20008;-72
2024/04/24 03:49:50;;;;;;;7.05;5.35;;;;;;;1.49;65.66;96070.31;5212262;27;20011;-74
2024/04/24 03:52:21;;;;;;;8.45;5.63;;;;;;;1.51;65.70;96073.56;5211972;27;20008;-72
2024/04/24 03:54:53;;;;;;;5.80;4.70;;;;;;;1.55;67.29;96079.22;5211850;27;20080;-72
2024/04/24 03:57:22;;;;;;;7.80;4.47;;;;;;;1.64;66.92;96080.97;5211519;27;20004;-72
2024/04/24 03:59:51;;;;;;;8.70;5.55;;;;;;;1.70;65.82;96077.03;5212070;27;20279;-72
2024/04/24 04:02:20;;;;;;;7.43;4.95;;;;;;;1.69;65.72;96072.84;5212046;27;20004;-72
2024/04/24 04:04:50;;;;;;;8.85;5.50;;;;;;;1.67;65.38;96082.44;5211560;27;20156;-72
2024/04/24 04:07:19;;;;;;;10.52;5.90;;;;;;;1.64;65.46;96081.78;5211149;27;20361;-72
2024/04/24 04:09:48;;;;;;;11.32;6.32;;;;;;;1.64;65.56;96079.19;5211449;27;20014;-73
2024/04/24 04:12:20;;;;;;;9.57;5.43;;;;;;;1.63;65.30;96076.75;5211065;27;20004;-72
2024/04/24 04:14:50;;;;;;;13.35;6.68;;;;;;;1.67;65.71;96077.31;5211796;27;20071;-72
2024/04/24 04:17:19;;;;;;;15.82;6.88;;;;;;;1.70;65.72;96077.03;5211358;27;20029;-72
2024/04/24 04:19:48;;;;;;;19.75;7.43;;;;;;;1.70;65.52;96077.03;5211402;27;20033;-73
2024/04/24 04:22:18;;;;;;;12.27;5.60;;;;;;;1.68;65.11;96068.63;5212025;27;20004;-73
2024/04/24 04:24:47;;;;;;;24.67;9.15;;;;;;;1.62;65.31;96067.44;5211879;27;20360;-72
2024/04/24 04:27:16;;;;;;;16.67;6.82;;;;;;;1.58;65.37;96068.66;5211269;27;20008;-73
2024/04/24 04:29:48;;;;;;;12.38;7.72;;;;;;;1.57;65.85;96064.47;5216710;27;20007;-72
2024/04/24 04:32:17;;;;;;;12.00;6.53;;;;;;;1.57;65.60;96060.13;5215446;27;19996;-73
2024/04/24 04:34:47;;;;;;;11.65;5.70;;;;;;;1.56;65.38;96053.38;5231407;27;20011;-72
2024/04/24 04:37:16;;;;;;;10.50;5.35;;;;;;;1.55;65.46;96053.50;5231490;27;20004;-72
2024/04/24 04:39:45;;;;;;;8.10;5.25;;;;;;;1.55;65.41;96062.06;5232159;27;19992;-73
2024/04/24 04:42:15;;;;;;;9.90;6.03;;;;;;;1.57;65.87;96062.69;5216125;27;20046;-72
2024/04/24 04:44:44;;;;;;;10.15;6.15;;;;;;;1.64;66.78;96057.84;5212075;27;20004;-72
2024/04/24 04:47:16;;;;;;;10.38;6.30;;;;;;;1.71;66.24;96064.03;5211248;27;20014;-73
2024/04/24 04:49:45;;;;;;;9.27;5.40;;;;;;;1.79;66.50;96060.75;5211743;27;20016;-73
2024/04/24 04:52:15;;;;;;;10.68;5.97;;;;;;;1.85;66.14;96070.47;5211359;27;20022;-72
2024/04/24 04:54:44;;;;;;;9.55;6.50;;;;;;;1.92;66.94;96068.97;5211398;27;20004;-73
2024/04/24 04:57:13;;;;;;;8.40;5.65;;;;;;;1.99;66.23;96070.03;5210801;27;20004;-74
2024/04/24 04:59:42;;;;;;;9.00;5.88;;;;;;;2.04;65.91;96070.41;5211252;27;20010;-75
2024/04/24 05:02:12;;;;;;;7.82;5.60;;;;;;;2.09;65.24;96076.91;5211790;27;20018;-72
2024/04/24 05:04:44;;;;;;;9.90;5.28;;;;;;;2.14;65.41;96070.34;5210726;27;20487;-75
2024/04/24 05:07:13;;;;;;;9.63;5.60;;;;;;;2.20;65.56;96069.78;5210128;27;20008;-75
2024/04/24 05:09:43;;;;;;;9.02;5.30;;;;;;;2.28;65.35;96068.28;5210542;27;20014;-75
2024/04/24 05:12:12;;;;;;;10.20;4.90;;;;;;;2.32;64.99;96072.16;5211212;27;20015;-75
2024/04/24 05:14:41;;;;;;;8.95;5.85;;;;;;;2.36;64.95;96066.63;5210428;27;20078;-75
2024/04/24 05:17:11;;;;;;;7.95;5.45;;;;;;;2.45;64.64;96060.59;5209750;27;20003;-74
2024/04/24 05:19:40;;;;;;;8.52;5.55;;;;;;;2.53;66.07;96059.06;5210390;27;20411;-74
2024/04/24 05:22:12;;;;;;;10.32;6.43;;;;;;;2.60;67.44;96057.53;5210011;27;20269;-74
2024/04/24 05:24:42;;;;;;;7.63;5.70;;;;;;;2.67;65.79;96056.00;5210349;27;20344;-75
2024/04/24 05:29:56;;;;;;;7.93;4.93;;;;;;;2.73;64.53;96057.97;5210589;27;20453;-72
2024/04/24 05:32:26;;;;;;;9.25;5.82;;;;;;;2.72;64.06;96048.63;5210670;27;20004;-73
2024/04/24 05:34:55;;;;;;;13.07;5.75;;;;;;;2.66;64.11;96049.22;5210530;27;20377;-73
2024/04/24 05:37:27;;;;;;;8.95;5.78;;;;;;;2.67;64.05;96050.84;5209655;27;20040;-73
2024/04/24 05:39:56;;;;;;;10.45;6.00;;;;;;;2.67;63.97;96045.69;5210461;27;20008;-72
2024/04/24 05:42:26;;;;;;;11.40;6.00;;;;;;;2.66;63.80;96044.06;5210692;27;20019;-73
2024/04/24 05:44:55;;;;;;;9.63;5.65;;;;;;;2.65;63.70;96050.19;5210002;27;20003;-73
2024/04/24 05:47:25;;;;;;;7.88;5.53;;;;;;;2.64;64.00;96045.97;5210707;27;20476;-75
2024/04/24 05:49:57;;;;;;;12.80;6.95;;;;;;;2.64;64.08;96043.41;5209304;27;20020;-74
2024/04/24 05:52:29;;;;;;;22.88;8.38;;;;;;;2.70;65.06;96042.03;5210241;27;20318;-75
2024/04/24 05:54:58;;;;;;;7.43;5.20;;;;;;;2.79;64.44;96036.78;5213101;27;20007;-72
2024/04/24 05:57:27;;;;;;;13.73;5.55;;;;;;;2.87;64.04;96026.56;5212907;27;20235;-72
2024/04/24 05:59:57;;;;;;;7.43;6.05;;;;;;;2.91;63.90;96026.25;5213242;27;20011;-72
2024/04/24 06:02:26;;;;;;;8.90;5.75;;;;;;;2.94;63.88;96025.97;5213108;27;20018;-72
2024/04/24 06:04:56;;;;;;;8.52;5.60;;;;;;;3.02;63.63;96023.47;5213252;27;20082;-72
2024/04/24 06:07:25;;;;;;;7.88;5.47;;;;;;;3.09;63.64;96024.50;5212680;27;20416;-72
2024/04/24 06:09:57;;;;;;;11.48;6.03;;;;;;;3.21;63.61;96023.28;5214619;27;20004;-75
2024/04/24 06:12:26;;;;;;;11.37;6.13;;;;;;;3.37;64.06;96011.47;5213563;27;20471;-74
2024/04/24 06:14:56;;;;;;;11.75;6.95;;;;;;;3.54;63.64;96013.19;5225286;27;20243;-74
2024/04/24 06:17:25;;;;;;;11.48;6.20;;;;;;;3.70;63.63;96007.31;5233027;27;19992;-74
2024/04/24 06:19:55;;;;;;;10.02;6.32;;;;;;;3.81;63.39;95999.31;5231170;27;20335;-74
2024/04/24 06:22:24;;;;;;;13.23;5.90;;;;;;;3.92;63.02;96000.81;5216898;27;20004;-74
2024/04/24 06:24:54;;;;;;;10.85;6.97;;;;;;;4.06;64.32;95996.81;5214389;27;20003;-74
2024/04/24 06:27:26;;;;;;;11.98;6.72;;;;;;;4.19;61.89;95996.41;5213313;27;20014;-74
2024/04/24 06:29:57;;;;;;;10.43;6.53;;;;;;;4.29;61.58;95997.06;5213388;27;20004;-74
2024/04/24 06:32:26;;;;;;;11.32;6.20;;;;;;;4.42;61.79;95989.69;5212953;27;20015;-74
2024/04/24 06:34:55;;;;;;;12.68;7.28;;;;;;;4.59;61.62;95993.13;5213017;27;20478;-74
2024/04/24 06:37:25;;;;;;;12.05;8.25;;;;;;;4.77;61.33;95995.56;5212978;27;20471;-74
2024/04/24 06:39:54;;;;;;;12.25;7.88;;;;;;;4.98;61.87;95991.69;5213289;27;20007;-74
2024/04/24 06:42:28;;;;;;;11.80;7.40;;;;;;;5.15;61.98;95986.34;5213215;27;20046;-74
2024/04/24 06:44:57;;;;;;;10.02;7.03;;;;;;;5.36;60.56;95985.03;5213473;27;20487;-74
2024/04/24 06:47:26;;;;;;;11.60;6.72;;;;;;;5.55;60.67;95989.03;5213503;27;20004;-74
2024/04/24 06:49:56;;;;;;;8.48;6.50;;;;;;;5.74;59.85;95982.69;5212784;27;20427;-75
2024/04/24 06:52:25;;;;;;;7.07;5.43;;;;;;;5.89;58.80;95985.38;5213486;27;20018;-75
2024/04/24 06:54:54;;;;;;;7.75;6.05;;;;;;;6.01;58.12;95984.06;5213436;27;20372;-75
2024/04/24 06:57:26;;;;;;;8.40;6.30;;;;;;;6.14;57.63;95981.75;5212523;27;20004;-75
2024/04/24 06:59:55;;;;;;;10.20;6.80;;;;;;;6.25;59.20;95979.75;5212464;27;20019;-75
2024/04/24 07:02:22;;;;;;;8.50;6.65;;;;;;;6.35;58.04;95975.16;5212258;27;20239;-75
2024/04/24 07:04:52;;;;;;;9.07;6.43;;;;;;;6.45;57.54;95975.78;5213190;27;20007;-75
2024/04/24 07:07:21;;;;;;;7.63;6.38;;;;;;;6.54;57.93;95979.91;5217815;27;20012;-72
2024/04/24 07:09:51;;;;;;;9.23;6.75;;;;;;;6.67;57.98;95971.56;5218302;27;20004;-72
2024/04/24 07:12:21;;;;;;;9.82;6.25;;;;;;;6.79;58.54;95977.16;5217781;27;20007;-72
2024/04/24 07:14:52;;;;;;;10.05;6.20;;;;;;;6.91;55.30;95968.00;5220233;27;20019;-72
2024/04/24 07:17:22;;;;;;;5.67;4.50;;;;;;;7.03;55.55;95970.19;5223766;27;20008;-72
2024/04/24 07:19:51;;;;;;;7.60;6.05;;;;;;;7.11;54.57;95970.91;5216407;27;20036;-72
2024/04/24 07:22:21;;;;;;;7.97;6.00;;;;;;;7.20;54.81;95958.69;5211990;27;20007;-73
2024/04/24 07:24:50;;;;;;;6.90;5.75;;;;;;;7.29;54.21;95957.63;5211835;27;20015;-72
2024/04/24 07:27:19;;;;;;;9.95;6.20;;;;;;;7.39;54.60;95955.59;5211504;27;20054;-72
2024/04/24 07:29:49;;;;;;;8.23;5.63;;;;;;;7.51;53.64;95949.94;5211867;27;20345;-72
2024/04/24 07:32:21;;;;;;;8.75;5.82;;;;;;;7.62;52.54;95952.09;5211629;27;20004;-73
2024/04/24 07:34:50;;;;;;;8.77;6.05;;;;;;;7.76;53.46;95953.91;5211549;27;20014;-73
2024/04/24 07:37:19;;;;;;;7.32;5.45;;;;;;;7.92;53.92;95952.09;5211405;27;20427;-73
2024/04/24 07:39:49;;;;;;;8.50;5.78;;;;;;;8.07;52.63;95949.44;5211738;27;20004;-73
2024/04/24 07:42:18;;;;;;;7.53;5.75;;;;;;;8.17;51.53;95952.59;5211324;27;20015;-72
2024/04/24 07:44:47;;;;;;;8.13;6.05;;;;;;;8.25;50.84;95948.09;5211500;27;20003;-72
2024/04/24 07:47:17;;;;;;;6.57;5.72;;;;;;;8.41;51.21;95954.88;5210801;27;20058;-72
2024/04/24 07:49:49;;;;;;;6.47;5.65;;;;;;;8.55;50.37;95947.22;5211040;27;20010;-73
2024/04/24 07:52:18;;;;;;;6.65;5.10;;;;;;;8.70;50.21;95954.97;5211535;27;20004;-73
2024/04/24 07:54:47;;;;;;;6.57;5.28;;;;;;;8.82;49.65;95958.69;5211152;27;20018;-72
2024/04/24 07:57:16;;;;;;;7.15;6.13;;;;;;;8.87;49.23;95951.91;5211116;27;20004;-73
2024/04/24 07:59:46;;;;;;;6.75;6.03;;;;;;;8.90;48.26;95963.78;5211332;27;20464;-73
2024/04/24 08:02:15;;;;;;;6.68;5.90;;;;;;;8.91;48.17;95957.56;5210921;27;20011;-73
2024/04/24 08:04:44;;;;;;;6.90;5.68;;;;;;;8.87;48.08;95948.53;5210825;27;20019;-73
2024/04/24 08:07:16;;;;;;;10.07;5.80;;;;;;;8.86;48.37;95952.13;5210833;27;20015;-73
2024/04/24 08:09:47;;;;;;;7.30;5.30;;;;;;;8.84;48.67;95956.72;5211051;27;20007;-73
2024/04/24 08:12:16;;;;;;;5.85;5.25;;;;;;;8.81;48.70;95957.88;5211210;27;20008;-73
2024/04/24 08:14:45;;;;;;;7.32;5.60;;;;;;;8.77;48.73;95950.66;5211437;27;20249;-73
2024/04/24 08:17:15;;;;;;;6.95;5.63;;;;;;;8.75;48.10;95955.22;5210131;27;20348;-72
2024/04/24 08:19:44;;;;;;;6.43;5.68;;;;;;;8.70;49.48;95949.75;5210999;27;20087;-73
2024/04/24 08:22:18;;;;;;;7.35;5.90;;;;;;;8.63;48.91;95955.69;5211323;27;20007;-73
2024/04/24 08:24:47;;;;;;;6.75;6.05;;;;;;;8.60;50.94;95958.69;5210927;27;20018;-73
2024/04/24 08:27:17;;;;;;;8.55;6.47;;;;;;;8.56;50.34;95959.22;5210294;27;20007;-72
2024/04/24 08:29:46;;;;;;;6.43;5.22;;;;;;;8.53;49.87;95952.63;5210935;27;20043;-73
2024/04/24 08:32:15;;;;;;;7.95;6.55;;;;;;;8.56;51.50;95960.03;5211247;27;20490;-73
2024/04/24 08:34:45;;;;;;;8.07;6.30;;;;;;;8.55;49.28;95958.44;5210896;27;20000;-73
2024/04/24 08:37:17;;;;;;;8.27;6.50;;;;;;;8.50;48.67;95960.75;5210248;27;20074;-73
2024/04/24 08:39:46;;;;;;;9.68;6.18;;;;;;;8.47;49.09;95958.53;5210978;27;20003;-73
2024/04/24 08:42:15;;;;;;;8.35;6.68;;;;;;;8.41;49.25;95954.06;5210684;27;20351;-73
2024/04/24 08:44:47;;;;;;;8.85;6.88;;;;;;;8.38;48.93;95950.03;5210550;27;20352;-73
2024/04/24 08:47:19;;;;;;;8.60;7.30;;;;;;;8.35;48.75;95944.38;5211161;27;20087;-73
2024/04/24 08:49:50;;;;;;;8.52;6.68;;;;;;;8.34;49.58;95946.19;5210399;27;20004;-73
2024/04/24 08:52:23;;;;;;;9.15;6.28;;;;;;;8.34;50.56;95947.97;5210271;27;20060;-73
2024/04/24 08:54:58;;;;;;;11.10;7.13;;;;;;;8.33;49.85;95948.94;5210326;27;20003;-73
2024/04/24 08:57:29;;;;;;;9.98;7.38;;;;;;;8.28;49.56;95946.91;5209931;27;20480;-73
2024/04/24 09:00:02;;;;;;;11.75;7.25;;;;;;;8.20;49.34;95945.25;5210358;27;20007;-73
2024/04/24 09:02:35;;;;;;;14.15;7.35;;;;;;;8.10;49.16;95941.31;5210603;27;20007;-73
2024/04/24 09:05:06;;;;;;;10.40;7.05;;;;;;;7.99;49.41;95940.78;5210677;27;20007;-72
2024/04/24 09:07:41;;;;;;;20.88;7.55;;;;;;;7.90;48.74;95941.09;5209844;27;20015;-73
2024/04/24 09:10:11;;;;;;;8.70;6.90;;;;;;;7.82;49.16;95941.97;5210303;27;20475;-73
2024/04/24 09:12:40;;;;;;;9.20;6.47;;;;;;;7.74;49.42;95935.09;5210104;27;20014;-73
2024/04/24 09:15:10;;;;;;;7.65;6.88;;;;;;;7.73;50.32;95938.66;5210058;27;20018;-73
2024/04/24 09:17:39;;;;;;;8.02;7.10;;;;;;;7.74;51.28;95929.91;5209443;27;20014;-73
2024/04/24 09:20:10;;;;;;;10.35;7.25;;;;;;;7.74;51.44;95940.28;5209869;27;20082;-73
2024/04/24 09:22:42;;;;;;;9.82;7.15;;;;;;;7.71;52.13;95940.63;5210242;27;20007;-73
2024/04/24 09:25:11;;;;;;;8.07;7.28;;;;;;;7.75;51.89;95941.88;5210411;27;20012;-73
2024/04/24 09:27:40;;;;;;;8.73;7.50;;;;;;;7.78;52.73;95935.53;5210564;27;20008;-73
2024/04/24 09:30:13;;;;;;;9.38;7.65;;;;;;;7.79;53.45;95939.75;5212956;27;20004;-73
2024/04/24 09:32:42;;;;;;;10.27;9.00;;;;;;;7.77;52.89;95942.50;5213005;27;20003;-76
2024/04/24 09:35:12;;;;;;;13.32;8.65;;;;;;;7.71;52.88;95947.63;5212902;27;20015;-73
2024/04/24 09:37:45;;;;;;;14.23;8.13;;;;;;;7.62;54.09;95941.72;5212315;27;20016;-73
2024/04/24 09:40:14;;;;;;;9.85;8.25;;;;;;;7.60;52.50;95946.28;5213286;27;20391;-73
2024/04/24 09:42:44;;;;;;;8.80;7.90;;;;;;;7.58;53.27;95940.44;5212777;27;20007;-73
2024/04/24 09:45:13;;;;;;;10.20;8.18;;;;;;;7.55;53.08;95941.63;5219060;27;19996;-73
2024/04/24 09:47:44;;;;;;;8.85;7.93;;;;;;;7.53;53.24;95942.78;5232667;27;20032;-73
2024/04/24 09:50:13;;;;;;;11.25;8.57;;;;;;;7.51;53.72;95934.38;5233330;27;19999;-72
2024/04/24 09:52:49;;;;;;;10.43;8.18;;;;;;;7.47;54.94;95938.31;5230830;27;19999;-72
2024/04/24 09:55:18;;;;;;;9.77;8.77;;;;;;;7.45;54.82;95935.88;5214757;27;20070;-73
2024/04/24 09:57:54;;;;;;;;;;;;;;;7.45;54.34;95937.69;5213633;27;20018;-73
2024/04/24 10:00:24;;;;;;;10.33;7.93;;;;;;;7.36;53.30;95940.34;5217350;27;19940;-73
2024/04/24 10:02:57;;;;;;;10.43;7.88;;;;;;;7.32;52.98;95931.31;5233432;27;20015;-72
2024/04/24 10:05:28;;;;;;;8.93;7.80;;;;;;;7.33;53.41;95934.72;5232216;27;20004;-72
2024/04/24 10:08:18;;;;;;;9.63;7.78;;;;;;;7.38;54.55;95925.41;5216933;27;20328;-72
2024/04/24 10:10:51;;;;;;;9.32;7.40;;;;;;;7.41;53.19;95922.47;5214321;27;20018;-73
2024/04/24 10:13:23;;;;;;;9.57;7.50;;;;;;;7.44;53.71;95913.53;5214054;27;20079;-74
2024/04/24 10:15:57;;;;;;;9.27;7.78;;;;;;;7.46;53.00;95910.75;5213296;27;20522;-73
2024/04/24 10:18:28;;;;;;;9.07;7.65;;;;;;;7.42;53.87;95913.69;5212992;27;20015;-73
2024/04/24 10:20:55;;;;;;;9.32;7.30;;;;;;;7.36;53.88;95906.63;5212835;27;20464;-73
2024/04/24 10:23:30;;;;;;;9.35;8.02;;;;;;;7.34;54.09;95908.59;5213333;27;20031;-73
2024/04/24 10:26:00;;;;;;;;;;;;;;;7.29;54.40;95903.13;5213778;27;20519;-73
2024/04/24 10:28:30;;;;;;;8.98;7.97;;;;;;;7.26;54.55;95903.50;5213473;27;19928;-73
2024/04/24 10:31:01;;;;;;;9.70;8.02;;;;;;;7.23;54.25;95896.84;5213243;27;20035;-73
2024/04/24 10:33:31;;;;;;;10.02;8.30;;;;;;;7.26;55.59;95900.09;5212925;27;20401;-73
2024/04/24 10:36:01;;;;;;;10.30;7.50;;;;;;;7.26;54.79;95893.13;5212686;27;20027;-73
2024/04/24 10:38:35;;;;;;;12.55;8.60;;;;;;;7.31;56.69;95892.59;5212965;27;20487;-73
2024/04/24 10:41:05;;;;;;;9.25;8.20;;;;;;;7.39;55.62;95892.47;5213550;27;20008;-73
2024/04/24 10:43:36;;;;;;;10.35;7.90;;;;;;;7.47;55.39;95886.41;5212816;27;20078;-73
2024/04/24 10:46:06;;;;;;;9.65;8.00;;;;;;;7.56;55.57;95880.13;5212848;27;20387;-73
2024/04/24 10:48:58;;;;;;;12.30;8.30;;;;;;;7.68;56.10;95883.09;5213210;27;20015;-73
2024/04/24 10:51:32;;;;;;;9.82;7.43;;;;;;;7.74;54.82;95890.97;5212939;27;20017;-74
2024/04/24 10:54:14;;;;;;;9.85;7.82;;;;;;;7.77;54.80;95885.41;5212917;27;20475;-73
2024/04/24 10:56:45;;;;;;;10.95;8.68;;;;;;;7.82;54.80;95880.44;5213533;27;20004;-73
2024/04/24 10:59:12;;;;;;;9.50;7.47;;;;;;;7.79;53.25;95877.44;5214029;27;20007;-73
2024/04/24 11:01:43;;;;;;;8.88;7.97;;;;;;;7.72;54.09;95879.94;5213665;27;20016;-73
2024/04/24 11:04:24;;;;;;;10.43;8.55;;;;;;;7.69;54.16;95889.88;5213728;27;20004;-73
2024/04/24 11:06:53;;;;;;;9.65;8.35;;;;;;;7.64;54.99;95893.03;5213683;27;20008;-73
2024/04/24 11:09:26;;;;;;;10.50;8.32;;;;;;;7.58;55.28;95894.53;5213938;27;20008;-73
2024/04/24 11:11:56;;;;;;;9.98;8.00;;;;;;;7.52;55.42;95904.84;5232206;27;20003;-73
2024/04/24 11:14:25;;;;;;;11.65;8.40;;;;;;;7.43;56.46;95897.16;5232550;27;20011;-73
2024/04/24 11:16:58;;;;;;;10.48;8.55;;;;;;;7.42;56.86;95905.91;5230848;27;20031;-73
2024/04/24 11:19:28;;;;;;;10.20;8.50;;;;;;;7.44;57.66;95897.97;5231019;27;20023;-73
2024/04/24 11:21:57;;;;;;;11.95;8.95;;;;;;;7.48;57.48;95908.75;5231265;27;20019;-73
2024/04/24 11:24:32;;;;;;;10.45;8.27;;;;;;;7.44;58.82;95910.94;5230741;27;20007;-73
2024/04/24 11:27:02;;;;;;;10.35;8.70;;;;;;;7.39;58.92;95906.28;5229631;27;20015;-73
2024/04/24 11:29:38;;;;;;;10.55;8.05;;;;;;;7.37;59.45;95897.06;5213819;27;20016;-73
2024/04/24 11:32:09;;;;;;;11.43;9.27;;;;;;;7.30;59.29;95903.94;5212537;27;20004;-73
2024/04/24 11:34:40;;;;;;;12.20;9.57;;;;;;;7.21;59.60;95903.22;5212346;27;20031;-73
2024/04/24 11:37:08;;;;;;;10.23;9.00;;;;;;;7.16;59.85;95902.94;5212293;27;20008;-73
2024/04/24 11:39:40;;;;;;;10.85;8.32;;;;;;;7.14;61.25;95899.72;5212415;27;20008;-73
2024/04/24 11:42:09;;;;;;;10.73;9.27;;;;;;;7.14;60.71;95897.13;5212483;27;20490;-73
2024/04/24 11:44:39;;;;;;;10.38;8.52;;;;;;;7.13;60.93;95900.72;5212461;27;20008;-73
2024/04/24 11:47:09;;;;;;;10.00;8.50;;;;;;;7.09;60.97;95899.47;5211828;27;20014;-73
2024/04/24 11:49:38;;;;;;;10.77;8.65;;;;;;;7.07;61.16;95902.22;5212324;27;20487;-73
2024/04/24 11:52:11;;;;;;;9.63;8.40;;;;;;;7.04;61.81;95889.63;5211329;27;20016;-73
2024/04/24 11:54:47;;;;;;;10.07;8.30;;;;;;;7.04;61.99;95892.22;5211706;27;20014;-73
2024/04/24 11:57:18;;;;;;;8.63;7.75;;;;;;;6.99;61.35;95890.13;5211378;27;20015;-73
2024/04/24 11:59:50;;;;;;;10.70;8.68;;;;;;;7.00;61.59;95886.56;5211808;27;20023;-73